الصفحة الرئيسية
METAR-TAF:

METAR-TAF

مطار :

Hagåtña, غوام, الولايات المتحدة

مطار أنتونيو بي وان بات الدولي

دائرة عرض: 13-29N, خط طول: 144-48E, ارتفاع: 91 متر

مراقبة الطقس الحالي

تاريخ ووقت الإصدار 56 دقيقة قبل الساعة 14:54UTC
ريح 6 عقدة من الشرق/الشمال الشرقي
درجة الحرارة 27°درجة مئوية
الرطوبة 89%
ضغط 1011 hPa
الرؤية: 16.1 كم
غيوم قليلة على ارتفاع 1900 قدم
غيوم متفرقة على ارتفاع 2900 قدم

METAR: PGUM 221454Z 07006KT 10SM FEW019 SCT029 27/25 A2984 RMK AO2 SLP095 T02720250 58010

زمن: 01:50 (15:50 UTC)

توقعات

تاريخ ووقت الإصدار 3ساعات و 42 دقيقة قبل الساعة 12:08UTC
التوقعات صالحة من22 الساعة 12 UTC إلى 23 الساعة 18 UTC
ريح 11 عقدة من الشرق
الرؤية: 10 كم
غيوم متفرقة على ارتفاع 2500 قدم
غيوم متفرقة على ارتفاع 5000 قدم
زخات في الجوار
من 22 الساعة 2300 UTC
ريح 14 عقدة من الشرق/الشمال الشرقي تتزايد حتى 20 عقدة
الرؤية: 10 كم
غيوم قليلة على ارتفاع 2500 قدم
غيوم متفرقة على ارتفاع 5000 قدم

TAF: PGUM 221208Z 2212/2318 08011KT P6SM VCSH SCT025 SCT050 FM222300 07014G20KT P6SM FEW025 SCT050

أرصاد الطقس والتوقعات من أكثر من 4000 مطار (تقارير الطقس للمطار METAR والتنبؤ بالطقس بالمطارTAF).

المحطات المتاحة هي النقط الصفراء والحمراء على الخريطة.

حرك المؤشر فوق النقطة لمعرفة اسم المحطة.

ثم انقر لمعرفة أرصاد وتوقعات الطقس.

لتغيير الخارطة: اضغط على الأزرار الخضراء مع رمز الصليب الأسود للتكبير. على الزر الأخضر مع شرطة للتصغير، أو على الأسهم الخضراء للخرائط المجاورة.


METAR-TAF: